createdAt,value
2023-03-30T00:00:18.401Z,20.70
2023-03-30T00:02:50.869Z,21.03
2023-03-30T00:05:19.411Z,21.15
2023-03-30T00:07:48.394Z,21.29
2023-03-30T00:10:19.151Z,20.49
2023-03-30T00:12:48.330Z,20.53
2023-03-30T00:15:18.066Z,21.06
2023-03-30T00:17:46.420Z,20.55
2023-03-30T00:20:17.286Z,20.60
2023-03-30T00:22:47.192Z,20.37
2023-03-30T00:25:16.849Z,20.92
2023-03-30T00:27:45.472Z,20.30
2023-03-30T00:30:15.599Z,19.34
2023-03-30T00:32:43.833Z,19.97
2023-03-30T00:35:13.153Z,20.27
2023-03-30T00:37:45.618Z,20.01
2023-03-30T00:40:20.210Z,19.63
2023-03-30T00:42:48.681Z,19.90
2023-03-30T00:45:20.733Z,19.75
2023-03-30T00:47:58.029Z,19.72
2023-03-30T00:50:30.555Z,20.09
2023-03-30T00:53:00.938Z,19.51
2023-03-30T00:55:32.974Z,20.46
2023-03-30T00:58:10.203Z,20.91
2023-03-30T01:00:40.233Z,20.85
2023-03-30T01:03:15.821Z,20.73
2023-03-30T01:05:46.142Z,20.50
2023-03-30T01:08:16.990Z,21.35
2023-03-30T01:10:45.485Z,21.61
2023-03-30T01:13:14.211Z,21.20
2023-03-30T01:15:54.414Z,21.67
2023-03-30T01:18:33.184Z,21.34
2023-03-30T01:21:24.636Z,21.08
2023-03-30T01:24:34.804Z,21.67
2023-03-30T01:27:19.123Z,22.00
2023-03-30T01:30:04.628Z,20.95
2023-03-30T01:33:00.050Z,21.39
2023-03-30T01:36:07.462Z,20.74
2023-03-30T01:39:02.410Z,20.70
2023-03-30T01:41:38.762Z,21.04
2023-03-30T01:44:13.575Z,20.12
2023-03-30T01:46:48.024Z,20.59
2023-03-30T01:49:23.912Z,20.90
2023-03-30T01:51:58.540Z,20.06
2023-03-30T01:54:33.891Z,20.41
2023-03-30T01:57:10.643Z,20.77
2023-03-30T01:59:44.976Z,20.41
2023-03-30T02:02:16.754Z,20.35
2023-03-30T02:04:48.415Z,20.90
2023-03-30T02:07:21.501Z,20.73
2023-03-30T02:09:52.653Z,21.23
2023-03-30T02:12:23.521Z,20.06
2023-03-30T02:14:53.461Z,19.48
2023-03-30T02:17:24.645Z,20.97
2023-03-30T02:19:54.575Z,20.37
2023-03-30T02:22:23.739Z,20.94
2023-03-30T02:24:55.222Z,20.57
2023-03-30T02:27:26.351Z,20.85
2023-03-30T02:29:54.678Z,21.34
2023-03-30T02:32:26.544Z,20.96
2023-03-30T02:35:19.837Z,20.32
2023-03-30T02:38:03.396Z,20.33
2023-03-30T02:40:40.857Z,18.59
2023-03-30T02:43:24.797Z,19.87
2023-03-30T02:46:01.673Z,21.74
2023-03-30T02:48:41.528Z,21.74
2023-03-30T02:51:23.544Z,20.10
2023-03-30T02:54:31.959Z,21.21
2023-03-30T02:57:28.579Z,21.38
2023-03-30T03:00:13.718Z,22.07
2023-03-30T03:02:44.588Z,22.54
2023-03-30T03:05:25.270Z,21.46
2023-03-30T03:08:19.512Z,21.88
2023-03-30T03:10:50.216Z,21.91
2023-03-30T03:13:20.713Z,20.86
2023-03-30T03:15:50.585Z,21.40
2023-03-30T03:18:18.523Z,21.61
2023-03-30T03:20:46.885Z,21.80
2023-03-30T03:23:15.129Z,22.53
2023-03-30T03:25:50.392Z,20.93
2023-03-30T03:28:20.519Z,21.58
2023-03-30T03:31:02.522Z,22.28
2023-03-30T03:33:32.348Z,22.55
2023-03-30T03:36:07.712Z,21.54
2023-03-30T03:38:40.192Z,22.73
2023-03-30T03:41:08.309Z,22.48
2023-03-30T03:43:36.920Z,22.09
2023-03-30T03:46:06.240Z,21.05
2023-03-30T03:48:34.512Z,22.20
2023-03-30T03:51:02.813Z,22.02
2023-03-30T03:53:34.531Z,21.69
2023-03-30T03:56:06.584Z,21.39
2023-03-30T03:58:35.351Z,21.65
2023-03-30T04:01:04.052Z,22.18
2023-03-30T04:03:33.873Z,22.26
2023-03-30T04:06:02.818Z,22.23
2023-03-30T04:08:31.374Z,21.82
2023-03-30T04:11:12.348Z,21.92
2023-03-30T04:13:56.279Z,22.58
2023-03-30T04:16:42.681Z,22.25
2023-03-30T04:19:31.607Z,21.83
2023-03-30T04:22:19.673Z,21.66
2023-03-30T04:25:22.749Z,22.42
2023-03-30T04:27:57.575Z,22.54
2023-03-30T04:30:59.964Z,22.46
2023-03-30T04:33:53.092Z,22.59
2023-03-30T04:36:48.639Z,22.78
2023-03-30T04:39:50.386Z,22.95
2023-03-30T04:42:37.847Z,23.05
2023-03-30T04:45:24.130Z,21.99
2023-03-30T04:47:55.012Z,22.45
2023-03-30T04:50:26.082Z,23.44
2023-03-30T04:53:14.957Z,23.32
2023-03-30T04:56:21.846Z,22.76
2023-03-30T04:59:16.003Z,22.09
2023-03-30T05:02:03.313Z,22.83
2023-03-30T05:04:48.414Z,22.84
2023-03-30T05:07:16.352Z,23.69
2023-03-30T05:10:10.404Z,23.38
2023-03-30T05:12:57.286Z,23.11
2023-03-30T05:15:38.046Z,23.14
2023-03-30T05:18:26.244Z,22.78
2023-03-30T05:21:08.720Z,22.43
2023-03-30T05:23:55.679Z,22.90
2023-03-30T05:26:43.813Z,23.09
2023-03-30T05:29:32.529Z,22.83
2023-03-30T05:32:19.240Z,22.97
2023-03-30T05:35:07.685Z,23.18
2023-03-30T05:37:55.336Z,23.58
2023-03-30T05:40:53.775Z,22.69
2023-03-30T05:43:41.867Z,23.04
2023-03-30T05:46:35.839Z,22.56
2023-03-30T05:49:24.702Z,22.48
2023-03-30T05:52:05.849Z,23.16
2023-03-30T05:54:52.115Z,22.21
2023-03-30T05:57:34.048Z,23.19
2023-03-30T06:00:19.400Z,23.22
2023-03-30T06:03:00.621Z,23.69
2023-03-30T06:05:33.860Z,23.87
2023-03-30T06:08:02.017Z,23.31
2023-03-30T06:10:30.077Z,22.50
2023-03-30T06:12:58.111Z,23.22
2023-03-30T06:15:45.839Z,22.90
2023-03-30T06:18:18.890Z,23.20
2023-03-30T06:21:02.798Z,22.51
2023-03-30T06:23:31.498Z,22.66
2023-03-30T06:26:05.791Z,22.26
2023-03-30T06:28:37.077Z,22.90
2023-03-30T06:31:12.028Z,23.30
2023-03-30T06:33:45.852Z,23.36
2023-03-30T06:36:15.553Z,23.39
2023-03-30T06:38:46.548Z,24.11
2023-03-30T06:41:17.239Z,24.40
2023-03-30T06:43:48.636Z,24.56
2023-03-30T06:46:21.706Z,23.98
2023-03-30T06:48:52.112Z,23.50
2023-03-30T06:51:42.668Z,23.85
2023-03-30T06:54:10.927Z,22.94
2023-03-30T06:56:43.687Z,23.53
2023-03-30T06:59:15.674Z,24.53
2023-03-30T07:02:19.731Z,24.46
2023-03-30T07:04:56.760Z,23.53
2023-03-30T07:07:29.583Z,24.21
2023-03-30T07:09:57.556Z,23.81
2023-03-30T07:12:25.564Z,23.52
2023-03-30T07:14:54.361Z,23.89
2023-03-30T07:17:26.458Z,23.86
2023-03-30T07:19:55.188Z,24.72
2023-03-30T07:22:23.482Z,24.75
2023-03-30T07:24:51.640Z,24.13
2023-03-30T07:27:19.990Z,25.07
2023-03-30T07:29:51.097Z,25.41
2023-03-30T07:32:19.230Z,25.59
2023-03-30T07:34:48.642Z,25.96
2023-03-30T07:37:20.518Z,25.99
2023-03-30T07:39:49.463Z,25.58
2023-03-30T07:42:17.867Z,25.90
2023-03-30T07:44:45.955Z,26.14
2023-03-30T07:47:18.138Z,25.66
2023-03-30T07:49:46.020Z,25.97
2023-03-30T07:52:16.601Z,26.33
2023-03-30T07:54:52.511Z,25.84
2023-03-30T07:57:26.560Z,26.43
2023-03-30T07:59:54.444Z,26.09
2023-03-30T08:02:40.094Z,26.26
2023-03-30T08:05:12.264Z,26.21
2023-03-30T08:07:54.842Z,26.36
2023-03-30T08:10:28.527Z,26.06
2023-03-30T08:12:56.902Z,26.37
2023-03-30T08:15:24.866Z,26.07
2023-03-30T08:17:52.827Z,26.92
2023-03-30T08:20:20.860Z,26.54
2023-03-30T08:22:49.070Z,26.42
2023-03-30T08:25:18.838Z,26.35
2023-03-30T08:27:47.352Z,24.88
2023-03-30T08:30:16.505Z,25.40
2023-03-30T08:32:44.597Z,25.40
2023-03-30T08:35:13.331Z,26.54
2023-03-30T08:37:41.431Z,26.43
2023-03-30T08:40:12.825Z,26.74
2023-03-30T08:42:59.901Z,25.78
2023-03-30T08:45:35.880Z,25.74
2023-03-30T08:48:06.392Z,25.72
2023-03-30T08:50:36.251Z,24.68
2023-03-30T08:53:05.518Z,25.17
2023-03-30T08:55:40.469Z,24.48
2023-03-30T08:58:18.640Z,25.66
2023-03-30T09:00:50.788Z,25.12
2023-03-30T09:03:26.272Z,25.70
2023-03-30T09:06:00.378Z,26.50
2023-03-30T09:08:31.990Z,26.39
2023-03-30T09:11:01.976Z,26.84
2023-03-30T09:13:35.312Z,27.29
2023-03-30T09:16:15.792Z,26.09
2023-03-30T09:18:45.449Z,26.09
2023-03-30T09:21:14.707Z,25.65
2023-03-30T09:23:43.014Z,26.43
2023-03-30T09:26:20.390Z,27.54
2023-03-30T09:29:00.005Z,27.44
2023-03-30T09:31:36.178Z,26.62
2023-03-30T09:34:08.784Z,26.01
2023-03-30T09:36:43.080Z,25.75
2023-03-30T09:39:12.630Z,26.22
2023-03-30T09:42:08.563Z,25.24
2023-03-30T09:44:42.787Z,25.50
2023-03-30T09:47:22.095Z,25.41
2023-03-30T09:49:50.741Z,25.80
2023-03-30T09:52:23.106Z,25.57
2023-03-30T09:54:51.104Z,23.15
2023-03-30T09:57:30.433Z,22.23
2023-03-30T10:00:01.879Z,22.53
2023-03-30T10:02:39.932Z,23.21
2023-03-30T10:05:18.502Z,23.73
2023-03-30T10:07:55.115Z,24.49
2023-03-30T10:10:34.919Z,24.27
2023-03-30T10:13:15.144Z,25.19
2023-03-30T10:15:48.480Z,24.37
2023-03-30T10:18:25.222Z,25.51
2023-03-30T10:20:55.231Z,26.60
2023-03-30T10:23:25.080Z,26.37
2023-03-30T10:26:03.767Z,26.11
2023-03-30T10:28:33.840Z,25.43
2023-03-30T10:31:06.551Z,25.73
2023-03-30T10:33:41.428Z,26.64
2023-03-30T10:36:10.540Z,26.81
2023-03-30T10:38:42.082Z,26.15
2023-03-30T10:41:12.717Z,25.85
2023-03-30T10:43:41.200Z,22.71
2023-03-30T10:46:20.035Z,21.98
2023-03-30T10:49:04.836Z,28.95
2023-03-30T10:51:42.141Z,25.18
2023-03-30T10:54:17.756Z,22.39
2023-03-30T10:56:48.266Z,23.90
2023-03-30T10:59:29.453Z,27.96
2023-03-30T11:02:18.095Z,21.65
2023-03-30T11:04:48.151Z,21.48
2023-03-30T11:07:22.805Z,21.98
2023-03-30T11:09:54.968Z,22.65
2023-03-30T11:12:36.361Z,22.27
2023-03-30T11:15:08.301Z,22.17
2023-03-30T11:17:45.720Z,22.28
2023-03-30T11:20:23.720Z,22.04
2023-03-30T11:22:56.532Z,22.45
2023-03-30T11:25:28.242Z,22.78
2023-03-30T11:28:04.828Z,22.59
2023-03-30T11:30:35.266Z,22.72
2023-03-30T11:33:13.020Z,22.61
2023-03-30T11:35:46.569Z,21.85
2023-03-30T11:38:18.961Z,22.96
2023-03-30T11:40:48.820Z,22.35
2023-03-30T11:43:18.756Z,22.76
2023-03-30T11:46:04.025Z,23.74
2023-03-30T11:49:00.996Z,22.97
2023-03-30T11:51:49.262Z,23.06
2023-03-30T11:54:38.711Z,23.49
2023-03-30T11:57:17.261Z,24.71
2023-03-30T11:59:56.367Z,24.21
2023-03-30T12:02:31.064Z,24.22
2023-03-30T12:05:04.912Z,25.12
2023-03-30T12:07:41.089Z,22.79
2023-03-30T12:10:16.863Z,25.83
2023-03-30T12:12:45.863Z,25.14
2023-03-30T12:15:28.967Z,25.43
2023-03-30T12:18:02.313Z,25.86
2023-03-30T12:20:36.968Z,25.67
2023-03-30T12:23:17.597Z,24.99
2023-03-30T12:26:03.605Z,25.75
2023-03-30T12:31:18.033Z,23.45
2023-03-30T12:33:48.706Z,24.00
2023-03-30T12:36:27.155Z,25.99
2023-03-30T12:39:02.273Z,25.20
2023-03-30T12:41:41.386Z,24.85
2023-03-30T12:44:25.945Z,24.31
2023-03-30T12:47:07.010Z,25.19
2023-03-30T12:49:49.572Z,26.42
2023-03-30T12:52:28.071Z,24.34
2023-03-30T12:55:16.311Z,24.95
2023-03-30T12:57:58.832Z,24.39
2023-03-30T13:00:45.809Z,24.63
2023-03-30T13:03:40.683Z,25.83
2023-03-30T13:06:19.755Z,24.96
2023-03-30T13:08:54.612Z,24.48
2023-03-30T13:11:23.663Z,22.45
2023-03-30T13:13:58.553Z,24.04
2023-03-30T13:16:49.899Z,23.54
2023-03-30T13:19:28.121Z,22.84
2023-03-30T13:21:58.994Z,23.92
2023-03-30T13:24:37.301Z,24.82
2023-03-30T13:27:22.303Z,24.54
2023-03-30T13:29:53.603Z,24.61
2023-03-30T13:32:28.697Z,23.74
2023-03-30T13:35:10.890Z,25.59
2023-03-30T13:38:08.534Z,25.21
2023-03-30T13:40:54.565Z,26.00
2023-03-30T13:43:43.958Z,24.37
2023-03-30T13:46:21.943Z,24.39
2023-03-30T13:49:06.419Z,25.08
2023-03-30T13:51:34.736Z,24.32
2023-03-30T13:54:06.505Z,24.01
2023-03-30T13:56:40.170Z,23.94
2023-03-30T13:59:13.482Z,24.42
2023-03-30T14:01:42.619Z,24.58
2023-03-30T14:04:13.729Z,24.80
2023-03-30T14:06:45.823Z,24.46
2023-03-30T14:09:19.762Z,23.71
2023-03-30T14:11:52.078Z,23.66
2023-03-30T14:14:23.830Z,24.61
2023-03-30T14:16:51.911Z,24.24
2023-03-30T14:19:25.303Z,23.90
2023-03-30T14:21:57.854Z,24.42
2023-03-30T14:24:30.953Z,24.35
2023-03-30T14:27:08.674Z,23.78
2023-03-30T14:29:45.685Z,24.61
2023-03-30T14:32:15.595Z,23.94
2023-03-30T14:34:47.607Z,24.63
2023-03-30T14:37:15.686Z,24.34
2023-03-30T14:39:46.519Z,23.83
2023-03-30T14:42:19.027Z,23.57
2023-03-30T14:44:49.448Z,24.51
2023-03-30T14:47:21.338Z,24.33
2023-03-30T14:49:51.693Z,23.83
2023-03-30T14:52:21.526Z,23.68
2023-03-30T14:55:05.196Z,23.39
2023-03-30T14:57:39.882Z,23.22
2023-03-30T15:00:20.494Z,23.65
2023-03-30T15:02:51.328Z,24.53
2023-03-30T15:05:20.113Z,24.84
2023-03-30T15:07:49.949Z,25.46
2023-03-30T15:10:26.596Z,24.38
2023-03-30T15:12:58.328Z,24.72
2023-03-30T15:15:28.941Z,23.42
2023-03-30T15:17:57.543Z,24.47
2023-03-30T15:20:27.645Z,24.30
2023-03-30T15:22:56.974Z,23.89
2023-03-30T15:25:33.838Z,24.08
2023-03-30T15:28:07.068Z,22.96
2023-03-30T15:30:38.837Z,22.99
2023-03-30T15:33:08.079Z,22.63
2023-03-30T15:35:38.187Z,22.15
2023-03-30T15:38:17.045Z,22.56
2023-03-30T15:40:47.417Z,22.68
2023-03-30T15:43:19.744Z,22.44
2023-03-30T15:45:54.018Z,22.08
2023-03-30T15:48:29.341Z,22.07
2023-03-30T15:51:04.607Z,20.16
2023-03-30T15:53:41.406Z,25.20
2023-03-30T15:56:14.685Z,24.25
2023-03-30T15:58:44.313Z,23.61
2023-03-30T16:01:15.890Z,23.62
2023-03-30T16:03:52.072Z,24.69
2023-03-30T16:06:21.602Z,25.81
2023-03-30T16:08:49.611Z,26.03
2023-03-30T16:11:18.683Z,25.01
2023-03-30T16:13:50.261Z,25.30
2023-03-30T16:16:18.794Z,24.53
2023-03-30T16:18:47.219Z,24.16
2023-03-30T16:21:15.782Z,23.98
2023-03-30T16:23:44.187Z,24.04
2023-03-30T16:26:12.640Z,24.20
2023-03-30T16:28:42.753Z,24.42
2023-03-30T16:31:19.327Z,24.24
2023-03-30T16:33:49.927Z,24.03
2023-03-30T16:36:19.616Z,24.81
2023-03-30T16:38:47.878Z,23.94
2023-03-30T16:41:19.534Z,24.96
2023-03-30T16:43:48.078Z,23.76
2023-03-30T16:46:19.593Z,23.40
2023-03-30T16:48:47.900Z,23.95
2023-03-30T16:51:16.440Z,23.47
2023-03-30T16:53:44.827Z,23.17
2023-03-30T16:56:17.695Z,22.83
2023-03-30T16:58:46.216Z,23.67
2023-03-30T17:01:18.867Z,24.40
2023-03-30T17:03:49.094Z,23.79
2023-03-30T17:06:17.264Z,23.60
2023-03-30T17:08:46.153Z,23.76
2023-03-30T17:11:14.429Z,23.21
2023-03-30T17:13:43.661Z,23.72
2023-03-30T17:16:13.876Z,23.70
2023-03-30T17:18:42.121Z,23.41
2023-03-30T17:21:16.667Z,23.68
2023-03-30T17:23:47.945Z,24.22
2023-03-30T17:26:16.506Z,22.55
2023-03-30T17:28:44.950Z,22.90
2023-03-30T17:31:17.001Z,23.00
2023-03-30T17:33:45.401Z,23.57
2023-03-30T17:36:19.318Z,23.97
2023-03-30T17:38:47.907Z,24.27
2023-03-30T17:41:17.090Z,24.16
2023-03-30T17:43:45.510Z,23.46
2023-03-30T17:46:15.146Z,23.17
2023-03-30T17:48:43.142Z,23.01
2023-03-30T17:51:11.572Z,23.10
2023-03-30T17:53:40.988Z,23.97
2023-03-30T17:56:18.641Z,23.89
2023-03-30T17:58:48.429Z,23.98
2023-03-30T18:01:16.934Z,23.69
2023-03-30T18:03:45.353Z,24.16
2023-03-30T18:06:14.398Z,23.04
2023-03-30T18:08:44.231Z,22.73
2023-03-30T18:11:16.424Z,23.36
2023-03-30T18:13:44.580Z,23.79
2023-03-30T18:16:29.484Z,22.85
2023-03-30T18:18:59.438Z,23.36
2023-03-30T18:21:27.396Z,23.47
2023-03-30T18:23:56.966Z,22.97
2023-03-30T18:26:25.123Z,23.52
2023-03-30T18:28:53.058Z,23.74
2023-03-30T18:31:22.241Z,24.30
2023-03-30T18:33:53.066Z,24.07
2023-03-30T18:36:22.319Z,23.84
2023-03-30T18:38:54.690Z,23.56
2023-03-30T18:41:24.239Z,23.04
2023-03-30T18:43:52.196Z,23.74
2023-03-30T18:46:20.324Z,23.64
2023-03-30T18:48:48.618Z,23.22
2023-03-30T18:51:16.465Z,22.72
2023-03-30T18:53:44.419Z,23.21
2023-03-30T18:56:13.593Z,23.29
2023-03-30T18:58:43.177Z,22.76
2023-03-30T19:01:13.290Z,23.16
2023-03-30T19:03:42.133Z,23.21
2023-03-30T19:06:13.858Z,22.78
2023-03-30T19:08:43.528Z,22.01
2023-03-30T19:11:14.986Z,22.53
2023-03-30T19:13:44.263Z,22.51
2023-03-30T19:16:12.217Z,22.66
2023-03-30T19:18:40.237Z,22.57
2023-03-30T19:21:08.324Z,22.30
2023-03-30T19:23:36.419Z,23.50
2023-03-30T19:26:04.384Z,22.52
2023-03-30T19:28:33.283Z,22.32
2023-03-30T19:31:06.744Z,22.84
2023-03-30T19:33:34.750Z,22.59
2023-03-30T19:36:03.104Z,22.49
2023-03-30T19:38:31.087Z,22.95
2023-03-30T19:41:00.907Z,23.01
2023-03-30T19:43:30.280Z,23.06
2023-03-30T19:45:59.014Z,22.27
2023-03-30T19:48:28.916Z,22.58
2023-03-30T19:50:57.548Z,22.15
2023-03-30T19:53:26.181Z,22.56
2023-03-30T19:55:55.090Z,22.95
2023-03-30T19:58:23.924Z,22.81
2023-03-30T20:00:52.208Z,22.37
2023-03-30T20:03:21.254Z,22.83
2023-03-30T20:05:51.162Z,22.42
2023-03-30T20:08:24.245Z,22.71
2023-03-30T20:10:53.609Z,22.70
2023-03-30T20:13:23.958Z,22.60
2023-03-30T20:15:55.827Z,22.53
2023-03-30T20:18:24.073Z,22.70
2023-03-30T20:20:53.403Z,22.82
2023-03-30T20:23:21.435Z,22.58
2023-03-30T20:25:50.523Z,22.53
2023-03-30T20:28:18.457Z,21.76
2023-03-30T20:30:46.251Z,22.23
2023-03-30T20:33:14.398Z,22.16
2023-03-30T20:35:43.035Z,22.09
2023-03-30T20:38:12.498Z,22.96
2023-03-30T20:40:40.264Z,22.55
2023-03-30T20:43:10.229Z,22.34
2023-03-30T20:45:46.382Z,22.67
2023-03-30T20:48:26.043Z,22.22
2023-03-30T20:50:55.277Z,22.18
2023-03-30T20:53:24.975Z,22.38
2023-03-30T20:55:52.985Z,22.49
2023-03-30T20:58:22.170Z,22.52
2023-03-30T21:00:52.019Z,22.42
2023-03-30T21:03:20.308Z,21.91
2023-03-30T21:05:58.564Z,21.30
2023-03-30T21:08:27.822Z,22.89
2023-03-30T21:10:55.977Z,22.40
2023-03-30T21:13:23.998Z,22.02
2023-03-30T21:15:57.390Z,22.38
2023-03-30T21:18:25.521Z,21.70
2023-03-30T21:20:53.607Z,22.03
2023-03-30T21:23:22.282Z,22.27
2023-03-30T21:25:54.591Z,21.91
2023-03-30T21:28:22.585Z,21.76
2023-03-30T21:30:50.349Z,21.42
2023-03-30T21:33:18.298Z,21.13
2023-03-30T21:35:49.807Z,21.09
2023-03-30T21:38:18.300Z,22.12
2023-03-30T21:40:58.250Z,20.79
2023-03-30T21:43:26.682Z,21.82
2023-03-30T21:45:56.018Z,21.45
2023-03-30T21:48:24.404Z,21.12
2023-03-30T21:50:58.242Z,21.76
2023-03-30T21:53:26.133Z,21.71
2023-03-30T21:55:54.406Z,21.09
2023-03-30T21:58:24.169Z,20.93
2023-03-30T22:01:01.254Z,21.63
2023-03-30T22:03:39.117Z,21.94
2023-03-30T22:06:08.728Z,21.61
2023-03-30T22:08:37.336Z,22.09
2023-03-30T22:11:07.078Z,22.06
2023-03-30T22:13:36.354Z,20.97
2023-03-30T22:16:07.182Z,21.76
2023-03-30T22:18:35.722Z,21.84
2023-03-30T22:21:06.150Z,21.19
2023-03-30T22:23:34.176Z,20.83
2023-03-30T22:26:02.014Z,21.28
2023-03-30T22:28:29.951Z,22.23
2023-03-30T22:30:59.318Z,21.65
2023-03-30T22:33:28.923Z,21.35
2023-03-30T22:35:57.581Z,22.00
2023-03-30T22:38:25.448Z,21.62
2023-03-30T22:41:04.614Z,22.04
2023-03-30T22:43:34.824Z,21.99
2023-03-30T22:46:04.504Z,21.95
2023-03-30T22:48:32.957Z,22.35
2023-03-30T22:51:03.262Z,22.45
2023-03-30T22:53:31.827Z,21.95
2023-03-30T22:55:59.925Z,21.72
2023-03-30T22:58:28.790Z,21.94
2023-03-30T23:01:01.015Z,22.08
2023-03-30T23:03:30.655Z,22.62
2023-03-30T23:06:01.138Z,22.26
2023-03-30T23:08:29.629Z,22.09
2023-03-30T23:10:57.722Z,21.71
2023-03-30T23:13:26.353Z,22.00
2023-03-30T23:15:56.155Z,21.86
2023-03-30T23:18:24.017Z,22.69
2023-03-30T23:20:58.042Z,22.02
2023-03-30T23:23:27.022Z,22.49
2023-03-30T23:25:54.935Z,21.91
2023-03-30T23:28:22.858Z,21.76
2023-03-30T23:30:50.671Z,22.01
2023-03-30T23:33:18.567Z,22.18
2023-03-30T23:35:50.738Z,21.63
2023-03-30T23:38:20.927Z,22.49
2023-03-30T23:40:48.945Z,22.35
2023-03-30T23:43:17.020Z,22.05
2023-03-30T23:45:45.075Z,22.03
2023-03-30T23:48:12.984Z,22.65
2023-03-30T23:50:41.164Z,22.63
2023-03-30T23:53:09.419Z,22.68
2023-03-30T23:55:38.693Z,22.62
2023-03-30T23:58:06.749Z,22.82
